Ringgold, Texas
Current Conditions -  °F | °C
As of 1:15 PM on Monday 20 Oct 2014 (Local Time) from K0F2 Reporting Station
Clear Clear  
Wind Chill: 79°   Ceiling: Unl
Heat Index: 80°   Visibility: 10mi
Dew Point: 60°   Wind: 6mph
Humidity: 53%   Direction: 240°WSW
Pressure: 30.06"   Gusts: NA
Location:  33.82°N, 97.94°W
Report Text: K0F2 201815Z AUTO 24005KT 10SM CLR 26/16 A3006 RMK AO2 T02600156
Loading
Personal Weather Stations






























Interactive Weather Map
Tropical Storm Tracking
New forecast layout! Learn more

10-Day Weather Forecast

Advertisements
Track Severe Weather on mobile